Time;durP1;ratioP1;P1;durP2;ratioP2;P2;SDS_P1;SDS_P2;PMS_P1;PMS_P2;Temp;Humidity;BMP_temperature;BMP_pressure;BME280_temperature;BME280_humidity;BME280_pressure;Samples;Min_cycle;Max_cycle;Signal;HPM_P1;HPM_P2
2022/06/19 00:00:43;;;;;;;10.70;6.55;;;21.00;99.90;;;;;;5153789;27;20421;-76
2022/06/19 00:03:13;;;;;;;8.77;6.53;;;21.00;99.90;;;;;;5153883;27;20066;-76
2022/06/19 00:05:41;;;;;;;7.10;6.50;;;20.90;99.90;;;;;;5154062;27;20384;-76
2022/06/19 00:08:08;;;;;;;8.10;7.20;;;20.90;99.90;;;;;;5153646;27;20093;-75
2022/06/19 00:10:34;;;;;;;7.38;6.68;;;20.80;99.90;;;;;;5153557;27;20377;-75
2022/06/19 00:13:00;;;;;;;7.90;7.05;;;20.70;99.90;;;;;;5153846;27;20058;-75
2022/06/19 00:15:29;;;;;;;7.68;6.97;;;20.60;99.90;;;;;;5153992;27;20073;-75
2022/06/19 00:17:55;;;;;;;7.03;6.30;;;20.50;99.90;;;;;;5153716;27;20061;-75
2022/06/19 00:20:21;;;;;;;8.85;7.95;;;20.50;99.90;;;;;;5153966;27;20061;-75
2022/06/19 00:22:47;;;;;;;10.93;6.93;;;20.40;99.90;;;;;;5153407;27;20050;-74
2022/06/19 00:25:13;;;;;;;7.97;7.18;;;20.40;99.90;;;;;;5153838;27;20367;-75
2022/06/19 00:27:40;;;;;;;9.27;7.60;;;20.30;99.90;;;;;;5153366;27;20421;-75
2022/06/19 00:30:10;;;;;;;9.60;6.72;;;20.30;99.90;;;;;;5153576;27;20095;-75
2022/06/19 00:32:37;;;;;;;8.25;7.45;;;20.20;99.90;;;;;;5153633;27;20501;-74
2022/06/19 00:35:04;;;;;;;10.43;8.00;;;20.30;99.90;;;;;;5153463;27;20046;-74
2022/06/19 00:37:31;;;;;;;8.63;7.78;;;20.30;99.90;;;;;;5153536;27;20042;-74
2022/06/19 00:39:58;;;;;;;8.50;7.68;;;20.40;99.90;;;;;;5153523;27;20058;-75
2022/06/19 00:42:29;;;;;;;8.68;7.82;;;20.50;99.90;;;;;;5153314;27;20057;-75
2022/06/19 00:44:55;;;;;;;9.07;7.55;;;20.50;99.90;;;;;;5151868;27;20049;-75
2022/06/19 00:47:25;;;;;;;7.30;6.53;;;20.40;99.90;;;;;;5153079;27;20392;-75
2022/06/19 00:49:56;;;;;;;9.32;8.43;;;20.30;99.90;;;;;;5153382;27;20480;-74
2022/06/19 00:52:25;;;;;;;9.63;8.30;;;20.40;99.90;;;;;;5153046;27;20054;-75
2022/06/19 00:54:56;;;;;;;9.57;7.60;;;20.40;99.90;;;;;;5153197;27;20047;-76
2022/06/19 00:57:23;;;;;;;8.50;7.53;;;20.30;99.90;;;;;;5153064;27;20042;-75
2022/06/19 00:59:54;;;;;;;9.40;8.10;;;20.30;99.90;;;;;;5153263;27;20043;-75
2022/06/19 01:02:21;;;;;;;7.53;6.88;;;20.30;99.90;;;;;;5153236;27;20062;-74
2022/06/19 01:04:50;;;;;;;8.30;7.40;;;20.20;99.90;;;;;;5153193;27;20055;-74
2022/06/19 01:07:17;;;;;;;8.40;7.07;;;20.20;99.90;;;;;;5153115;27;20050;-74
2022/06/19 01:09:44;;;;;;;7.47;6.80;;;20.30;99.90;;;;;;5152938;27;20042;-74
2022/06/19 01:12:11;;;;;;;8.57;7.22;;;20.50;99.90;;;;;;5152997;27;20103;-73
2022/06/19 01:14:40;;;;;;;8.20;7.40;;;20.50;99.90;;;;;;5152838;27;20507;-75
2022/06/19 01:17:08;;;;;;;7.95;7.25;;;20.50;99.90;;;;;;5153025;27;20038;-75
2022/06/19 01:19:36;;;;;;;8.93;7.80;;;20.50;99.90;;;;;;5152940;27;20047;-75
2022/06/19 01:22:06;;;;;;;7.15;6.65;;;20.50;99.90;;;;;;5153033;27;20069;-75
2022/06/19 01:24:40;;;;;;;8.88;7.80;;;20.50;99.90;;;;;;5155453;27;20059;-75
2022/06/19 01:28:45;;;;;;;7.95;7.13;;;20.40;99.90;;;;;;5156272;27;20046;-74
2022/06/19 01:29:59;;;;;;;7.63;6.93;;;20.40;99.90;;;;;;5154839;27;20525;-74
2022/06/19 01:32:25;;;;;;;8.27;7.35;;;20.30;99.90;;;;;;5156376;27;20394;-75
2022/06/19 01:34:53;;;;;;;9.02;7.30;;;20.30;99.90;;;;;;5156205;27;20070;-75
2022/06/19 01:37:24;;;;;;;8.07;7.28;;;20.30;99.90;;;;;;5156345;27;20126;-75
2022/06/19 01:39:54;;;;;;;8.00;7.30;;;20.30;99.90;;;;;;5156187;27;20446;-73
2022/06/19 01:42:22;;;;;;;7.72;7.03;;;20.30;99.90;;;;;;5156087;27;20480;-74
2022/06/19 01:44:50;;;;;;;7.95;7.35;;;20.30;99.90;;;;;;5156094;27;20047;-74
2022/06/19 01:47:16;;;;;;;8.88;8.13;;;20.30;99.90;;;;;;5156157;27;20058;-74
2022/06/19 01:49:46;;;;;;;8.38;6.93;;;20.20;99.90;;;;;;5155754;27;20050;-74
2022/06/19 01:52:12;;;;;;;8.20;7.38;;;20.20;99.90;;;;;;5156032;27;20055;-75
2022/06/19 01:54:42;;;;;;;8.35;7.55;;;20.30;99.90;;;;;;5155976;27;20043;-74
2022/06/19 01:57:10;;;;;;;9.02;8.23;;;20.20;99.90;;;;;;5155794;27;20388;-74
2022/06/19 01:59:41;;;;;;;8.35;7.57;;;20.20;99.90;;;;;;5155844;27;20043;-73
2022/06/19 02:02:09;;;;;;;10.27;7.50;;;20.20;99.90;;;;;;5155787;27;20042;-75
2022/06/19 02:04:36;;;;;;;8.00;7.30;;;20.10;99.90;;;;;;5155684;27;20090;-73
2022/06/19 02:07:05;;;;;;;8.48;7.68;;;20.10;99.90;;;;;;5155608;27;20051;-74
2022/06/19 02:09:33;;;;;;;8.07;6.97;;;20.20;99.90;;;;;;5155512;27;20104;-74
2022/06/19 02:12:00;;;;;;;9.25;7.32;;;20.30;99.90;;;;;;5155924;27;20110;-74
2022/06/19 02:14:26;;;;;;;7.45;6.85;;;20.30;99.90;;;;;;5155676;27;20046;-74
2022/06/19 02:16:53;;;;;;;7.63;6.85;;;20.30;99.90;;;;;;5155696;27;20545;-74
2022/06/19 02:19:20;;;;;;;7.45;6.78;;;20.30;99.90;;;;;;5155642;27;20043;-75
2022/06/19 02:21:51;;;;;;;8.40;6.95;;;20.40;99.90;;;;;;5156085;27;20075;-75
2022/06/19 02:24:20;;;;;;;7.90;7.20;;;20.40;99.90;;;;;;5155683;27;20039;-75
2022/06/19 02:26:48;;;;;;;8.38;7.45;;;20.40;99.90;;;;;;5155756;27;20058;-75
2022/06/19 02:29:17;;;;;;;8.60;7.55;;;20.40;99.90;;;;;;5155331;27;20155;-74
2022/06/19 02:31:47;;;;;;;7.65;6.95;;;20.30;99.90;;;;;;5155257;27;20485;-74
2022/06/19 02:34:21;;;;;;;9.43;7.43;;;20.30;99.90;;;;;;5155115;27;20119;-74
2022/06/19 02:36:51;;;;;;;9.35;7.65;;;20.30;99.90;;;;;;5155061;27;20053;-75
2022/06/19 02:39:31;;;;;;;10.25;7.25;;;20.20;99.90;;;;;;5155092;27;20504;-74
2022/06/19 02:42:05;;;;;;;18.23;12.80;;;20.20;99.90;;;;;;5155014;27;20047;-74
2022/06/19 02:44:35;;;;;;;10.27;8.82;;;20.20;99.90;;;;;;5155536;27;20058;-74
2022/06/19 02:47:02;;;;;;;8.07;7.28;;;20.20;99.90;;;;;;5155844;27;20400;-75
2022/06/19 02:49:29;;;;;;;7.85;7.15;;;20.30;99.90;;;;;;5157313;27;20039;-74
2022/06/19 02:51:55;;;;;;;7.97;7.28;;;20.20;99.90;;;;;;5156807;27;20054;-74
2022/06/19 02:54:21;;;;;;;8.70;7.82;;;20.20;99.90;;;;;;5157856;27;20174;-75
2022/06/19 02:56:48;;;;;;;8.98;7.57;;;20.10;99.90;;;;;;5158774;27;20055;-74
2022/06/19 02:59:14;;;;;;;7.82;6.90;;;20.20;99.90;;;;;;5161431;27;20043;-75
2022/06/19 03:01:40;;;;;;;8.00;7.18;;;20.30;99.90;;;;;;5166576;27;20388;-74
2022/06/19 03:04:14;;;;;;;9.50;7.15;;;20.40;99.90;;;;;;5168049;27;20069;-74
2022/06/19 03:06:41;;;;;;;8.27;7.47;;;20.50;99.90;;;;;;5163840;27;20102;-74
2022/06/19 03:09:07;;;;;;;8.45;7.75;;;20.60;99.90;;;;;;5161890;27;20130;-75
2022/06/19 03:11:33;;;;;;;8.60;7.03;;;20.60;99.90;;;;;;5159710;27;20047;-74
2022/06/19 03:13:59;;;;;;;9.77;7.75;;;20.70;99.90;;;;;;5158290;27;20491;-75
2022/06/19 03:16:26;;;;;;;13.07;9.38;;;20.70;99.90;;;;;;5159287;27;20046;-74
2022/06/19 03:18:52;;;;;;;8.50;7.70;;;20.70;99.90;;;;;;5157109;27;20050;-74
2022/06/19 03:21:19;;;;;;;8.35;7.55;;;20.80;99.90;;;;;;5161156;27;20119;-74
2022/06/19 03:23:46;;;;;;;9.10;8.35;;;20.80;99.90;;;;;;5157326;27;20480;-74
2022/06/19 03:26:12;;;;;;;9.85;8.38;;;20.80;99.90;;;;;;5155186;27;20054;-73
2022/06/19 03:28:39;;;;;;;7.90;7.22;;;20.90;99.90;;;;;;5158588;27;20042;-75
2022/06/19 03:31:05;;;;;;;9.45;8.75;;;21.00;99.90;;;;;;5161043;27;20492;-74
2022/06/19 03:33:31;;;;;;;8.48;7.68;;;21.00;99.90;;;;;;5138737;27;20047;-75
2022/06/19 03:35:57;;;;;;;9.32;8.52;;;20.90;99.90;;;;;;5154856;27;20062;-75
2022/06/19 03:38:23;;;;;;;9.88;8.98;;;20.90;99.90;;;;;;5157085;27;20043;-75
2022/06/19 03:40:50;;;;;;;8.80;8.00;;;21.00;99.90;;;;;;5156783;27;20463;-74
2022/06/19 03:43:16;;;;;;;9.50;8.35;;;21.00;99.90;;;;;;5154399;27;20043;-74
2022/06/19 03:45:42;;;;;;;9.35;8.45;;;21.00;99.90;;;;;;5153535;27;20145;-74
2022/06/19 03:48:11;;;;;;;9.25;8.43;;;21.00;99.90;;;;;;5117397;27;20112;-74
2022/06/19 03:50:39;;;;;;;9.15;8.32;;;21.00;99.90;;;;;;5154238;27;20038;-75
2022/06/19 03:53:06;;;;;;;8.95;8.05;;;21.00;99.90;;;;;;5135570;27;20043;-74
2022/06/19 03:55:32;;;;;;;12.55;8.55;;;21.00;99.90;;;;;;5154099;27;20043;-75
2022/06/19 03:57:59;;;;;;;10.02;8.68;;;21.00;99.90;;;;;;5153630;27;20102;-75
2022/06/19 04:00:25;;;;;;;9.55;8.45;;;21.00;99.90;;;;;;5153935;27;20492;-75
2022/06/19 04:02:51;;;;;;;9.25;8.57;;;21.00;99.90;;;;;;5153925;27;20508;-74
2022/06/19 04:05:18;;;;;;;9.40;8.50;;;21.00;99.90;;;;;;5153888;27;20507;-74
2022/06/19 04:07:46;;;;;;;8.93;8.02;;;21.00;99.90;;;;;;5153748;27;20118;-74
2022/06/19 04:10:13;;;;;;;10.25;8.98;;;21.00;99.90;;;;;;5153778;27;20046;-74
2022/06/19 04:12:39;;;;;;;11.88;9.57;;;21.10;99.90;;;;;;5153634;27;20047;-76
2022/06/19 04:15:08;;;;;;;9.57;8.68;;;21.10;99.90;;;;;;5153909;27;20129;-74
2022/06/19 04:17:36;;;;;;;10.15;9.20;;;21.20;99.90;;;;;;5153404;27;20398;-74
2022/06/19 04:20:03;;;;;;;8.90;8.13;;;21.20;99.90;;;;;;5153916;27;20066;-74
2022/06/19 04:22:29;;;;;;;10.02;9.10;;;21.40;99.90;;;;;;5153443;27;20488;-75
2022/06/19 04:24:57;;;;;;;11.05;9.15;;;21.50;99.90;;;;;;5153645;27;20376;-74
2022/06/19 04:27:23;;;;;;;9.77;8.88;;;21.50;99.90;;;;;;5153474;27;20043;-75
2022/06/19 04:29:49;;;;;;;9.75;8.95;;;21.60;99.90;;;;;;5153349;27;20103;-74
2022/06/19 04:32:16;;;;;;;10.73;9.75;;;21.50;99.90;;;;;;5153231;27;20047;-75
2022/06/19 04:34:43;;;;;;;10.00;9.05;;;21.60;99.90;;;;;;5153279;27;20057;-75
2022/06/19 04:37:09;;;;;;;9.57;8.77;;;21.70;99.90;;;;;;5152945;27;20050;-75
2022/06/19 04:39:35;;;;;;;10.68;9.77;;;21.70;99.90;;;;;;5153351;27;20387;-76
2022/06/19 04:42:02;;;;;;;10.60;9.43;;;21.80;99.90;;;;;;5153322;27;20079;-75
2022/06/19 04:44:28;;;;;;;10.00;9.10;;;21.90;99.90;;;;;;5153058;27;20047;-75
2022/06/19 04:46:54;;;;;;;11.23;10.07;;;21.90;99.90;;;;;;5153171;27;20059;-74
2022/06/19 04:49:21;;;;;;;12.65;8.95;;;21.90;99.90;;;;;;5153213;27;20057;-73
2022/06/19 04:51:47;;;;;;;10.80;9.80;;;22.00;99.90;;;;;;5152829;27;20047;-74
2022/06/19 04:54:13;;;;;;;11.25;10.25;;;22.10;99.90;;;;;;5153022;27;20050;-73
2022/06/19 04:56:39;;;;;;;11.65;10.48;;;22.10;99.90;;;;;;5152913;27;20400;-74
2022/06/19 04:59:07;;;;;;;10.80;9.55;;;22.10;99.90;;;;;;5155214;27;20050;-75
2022/06/19 05:01:36;;;;;;;10.98;9.93;;;22.10;99.90;;;;;;5156594;27;20054;-74
2022/06/19 05:04:04;;;;;;;9.55;8.68;;;22.30;99.90;;;;;;5156769;27;20074;-74
2022/06/19 05:06:32;;;;;;;10.95;10.00;;;22.30;99.90;;;;;;5156666;27;20500;-76
2022/06/19 05:08:58;;;;;;;12.18;10.35;;;22.30;99.90;;;;;;5156939;27;20053;-74
2022/06/19 05:11:26;;;;;;;11.05;9.95;;;22.40;99.90;;;;;;5156940;27;20074;-75
2022/06/19 05:13:53;;;;;;;10.48;9.63;;;22.50;99.90;;;;;;5156607;27;20043;-76
2022/06/19 05:16:25;;;;;;;10.90;9.90;;;22.50;99.90;;;;;;5137700;27;20107;-81
2022/06/19 05:18:55;;;;;;;11.20;10.10;;;22.50;99.90;;;;;;5155770;27;20054;-78
2022/06/19 05:21:23;;;;;;;11.23;10.30;;;22.60;99.90;;;;;;5138298;27;20126;-73
2022/06/19 05:23:50;;;;;;;11.95;10.35;;;22.70;99.90;;;;;;5156543;27;20199;-71
2022/06/19 05:26:20;;;;;;;11.32;10.40;;;22.80;99.90;;;;;;5156684;27;20050;-72
2022/06/19 05:28:48;;;;;;;10.48;9.57;;;22.90;99.90;;;;;;5153115;27;20077;-73
2022/06/19 05:31:14;;;;;;;11.27;10.35;;;23.00;99.90;;;;;;5156404;27;20076;-72
2022/06/19 05:33:46;;;;;;;10.70;9.52;;;23.10;99.90;;;;;;5156411;27;20503;-78
2022/06/19 05:36:15;;;;;;;11.20;10.07;;;23.20;99.90;;;;;;5156473;27;20049;-78
2022/06/19 05:38:44;;;;;;;11.13;9.35;;;23.30;99.90;;;;;;5136992;27;20077;-78
2022/06/19 05:41:15;;;;;;;10.05;9.13;;;23.50;99.90;;;;;;5156355;27;20061;-78
2022/06/19 05:43:42;;;;;;;11.23;9.95;;;23.60;99.90;;;;;;5137802;27;20055;-73
2022/06/19 05:46:13;;;;;;;10.55;8.95;;;23.60;99.90;;;;;;5156092;27;20042;-75
2022/06/19 05:48:39;;;;;;;;;;;23.70;99.90;;;;;;5156344;27;20515;-74
2022/06/19 05:51:07;;;;;;;11.15;10.10;;;23.90;99.90;;;;;;5156234;27;19954;-75
2022/06/19 05:53:38;;;;;;;10.52;9.65;;;23.90;99.90;;;;;;5156311;27;20099;-76
2022/06/19 05:56:05;;;;;;;14.50;9.27;;;24.20;99.90;;;;;;5140146;27;20078;-75
2022/06/19 05:58:34;;;;;;;10.40;9.50;;;24.30;99.90;;;;;;5158765;27;20051;-76
2022/06/19 06:01:03;;;;;;;11.20;10.15;;;24.50;99.90;;;;;;5156526;27;20066;-76
2022/06/19 06:03:31;;;;;;;10.32;8.88;;;24.70;99.90;;;;;;5155098;27;20192;-76
2022/06/19 06:05:59;;;;;;;9.73;8.75;;;24.80;99.90;;;;;;5156193;27;20047;-76
2022/06/19 06:08:26;;;;;;;10.00;8.98;;;24.90;99.90;;;;;;5155486;27;20129;-75
2022/06/19 06:10:52;;;;;;;8.85;8.02;;;24.90;99.90;;;;;;5155321;27;20408;-75
2022/06/19 06:13:18;;;;;;;9.70;8.65;;;25.10;99.90;;;;;;5155796;27;20145;-76
2022/06/19 06:15:46;;;;;;;12.95;8.85;;;25.30;99.90;;;;;;5155527;27;20070;-75
2022/06/19 06:18:13;;;;;;;9.32;8.55;;;25.40;99.90;;;;;;5155338;27;20134;-77
2022/06/19 06:20:39;;;;;;;9.57;8.65;;;25.60;99.90;;;;;;5155498;27;20047;-76
2022/06/19 06:23:05;;;;;;;9.38;7.45;;;25.90;99.90;;;;;;5155274;27;20065;-76
2022/06/19 06:25:34;;;;;;;8.75;8.02;;;26.10;99.90;;;;;;5155593;27;20054;-76
2022/06/19 06:28:00;;;;;;;9.73;8.73;;;26.40;99.90;;;;;;5136989;27;20469;-76
2022/06/19 06:30:27;;;;;;;7.85;6.78;;;26.60;99.90;;;;;;5155197;27;20055;-78
2022/06/19 06:32:56;;;;;;;8.52;7.68;;;26.70;99.90;;;;;;5155286;27;20532;-76
2022/06/19 06:35:23;;;;;;;14.40;7.00;;;26.80;99.80;;;;;;5103684;27;20073;-75
2022/06/19 06:37:49;;;;;;;8.80;7.88;;;27.00;99.50;;;;;;5155190;27;20042;-76
2022/06/19 06:40:16;;;;;;;10.30;7.35;;;27.10;98.60;;;;;;5136485;27;20047;-74
2022/06/19 06:42:45;;;;;;;11.30;7.25;;;27.20;98.00;;;;;;5154989;27;20046;-76
2022/06/19 06:45:13;;;;;;;9.00;7.10;;;27.40;97.20;;;;;;5155047;27;20062;-75
2022/06/19 06:47:39;;;;;;;9.95;7.68;;;27.70;96.40;;;;;;5154780;27;20054;-76
2022/06/19 06:50:08;;;;;;;10.00;7.15;;;27.80;94.90;;;;;;5155089;27;20043;-75
2022/06/19 06:52:34;;;;;;;9.55;7.10;;;27.90;94.80;;;;;;5154477;27;20061;-75
2022/06/19 06:55:01;;;;;;;7.75;6.68;;;28.00;93.60;;;;;;5154896;27;20094;-76
2022/06/19 06:57:28;;;;;;;11.35;6.78;;;28.40;93.10;;;;;;5136320;27;20484;-75
2022/06/19 06:59:54;;;;;;;7.55;6.72;;;28.60;92.20;;;;;;5154947;27;20522;-75
2022/06/19 07:02:21;;;;;;;11.75;6.68;;;28.60;91.60;;;;;;5154856;27;20038;-76
2022/06/19 07:04:47;;;;;;;11.90;6.88;;;28.60;91.20;;;;;;5154902;27;20043;-76
2022/06/19 07:07:14;;;;;;;8.38;7.25;;;28.70;90.80;;;;;;5154768;27;20039;-76
2022/06/19 07:09:41;;;;;;;6.60;6.07;;;28.80;90.40;;;;;;5155111;27;20053;-77
2022/06/19 07:12:09;;;;;;;12.00;7.13;;;29.20;90.00;;;;;;5154989;27;20047;-75
2022/06/19 07:14:35;;;;;;;11.82;7.15;;;29.70;88.20;;;;;;5136432;27;20061;-75
2022/06/19 07:17:02;;;;;;;10.18;7.15;;;30.10;86.80;;;;;;5154437;27;20400;-76
2022/06/19 07:19:30;;;;;;;7.65;6.15;;;30.00;85.00;;;;;;5154575;27;20042;-77
2022/06/19 07:21:56;;;;;;;12.65;5.88;;;30.40;83.40;;;;;;5118379;27;20119;-75
2022/06/19 07:24:23;;;;;;;6.05;5.25;;;30.60;82.00;;;;;;5154512;27;20050;-75
2022/06/19 07:26:51;;;;;;;9.48;6.72;;;30.70;80.80;;;;;;5154579;27;20058;-75
2022/06/19 07:29:17;;;;;;;6.72;5.63;;;30.80;79.00;;;;;;5155093;27;20051;-76
2022/06/19 07:31:46;;;;;;;5.97;5.38;;;30.80;78.00;;;;;;5155727;27;20069;-76
2022/06/19 07:34:12;;;;;;;7.47;5.97;;;31.10;78.20;;;;;;5155872;27;20050;-76
2022/06/19 07:36:38;;;;;;;10.55;5.72;;;31.40;76.40;;;;;;5154606;27;20062;-76
2022/06/19 07:39:04;;;;;;;6.25;5.57;;;31.80;74.80;;;;;;5155249;27;20113;-76
2022/06/19 07:41:31;;;;;;;8.15;5.72;;;31.90;74.00;;;;;;5168108;27;20138;-76
2022/06/19 07:43:57;;;;;;;8.82;6.20;;;31.80;71.50;;;;;;5171373;27;20043;-75
2022/06/19 07:46:24;;;;;;;9.85;5.40;;;31.80;72.00;;;;;;5170070;27;20055;-77
2022/06/19 07:51:35;;;;;;;6.93;5.63;;;31.80;72.10;;;;;;5175389;27;20114;-77
2022/06/19 07:54:06;;;;;;;11.40;6.38;;;31.90;71.80;;;;;;5172043;27;20047;-76
2022/06/19 07:56:35;;;;;;;9.75;5.22;;;32.60;70.30;;;;;;5176993;27;20043;-77
2022/06/19 07:59:02;;;;;;;8.10;5.07;;;33.10;67.80;;;;;;5176622;27;20110;-76
2022/06/19 08:01:29;;;;;;;9.77;6.50;;;33.30;65.60;;;;;;5142787;27;20063;-76
2022/06/19 08:03:59;;;;;;;8.35;5.57;;;33.60;65.70;;;;;;5134694;27;20061;-74
2022/06/19 08:06:26;;;;;;;7.18;5.82;;;34.10;64.20;;;;;;5153971;27;20059;-75
2022/06/19 08:08:52;;;;;;;7.93;3.88;;;34.10;62.40;;;;;;5153634;27;20060;-76
2022/06/19 08:11:18;;;;;;;5.28;4.57;;;33.90;61.40;;;;;;5153865;27;20034;-75
2022/06/19 08:13:45;;;;;;;5.32;4.20;;;33.30;62.20;;;;;;5153655;27;20054;-74
2022/06/19 08:16:11;;;;;;;9.77;4.80;;;33.70;62.20;;;;;;5153593;27;20120;-76
2022/06/19 08:18:38;;;;;;;8.40;4.70;;;33.50;60.90;;;;;;5153489;27;20055;-74
2022/06/19 08:21:05;;;;;;;6.47;4.30;;;33.60;60.30;;;;;;5153960;27;20047;-75
2022/06/19 08:23:31;;;;;;;6.05;4.32;;;33.70;60.60;;;;;;5153555;27;20065;-75
2022/06/19 08:25:59;;;;;;;7.43;5.32;;;33.80;60.20;;;;;;5153637;27;20404;-75
2022/06/19 08:28:27;;;;;;;11.90;4.70;;;33.70;59.60;;;;;;5153678;27;20151;-74
2022/06/19 08:30:55;;;;;;;9.50;4.85;;;33.60;60.40;;;;;;5153388;27;20442;-74
2022/06/19 08:33:21;;;;;;;4.65;4.15;;;34.20;59.60;;;;;;5156226;27;20046;-76
2022/06/19 08:35:50;;;;;;;7.07;4.93;;;34.90;59.10;;;;;;5157329;27;20064;-75
2022/06/19 08:38:21;;;;;;;8.48;6.25;;;34.90;57.90;;;;;;5157290;27;20046;-76
2022/06/19 08:41:07;;;;;;;7.60;4.75;;;34.80;58.00;;;;;;5139113;27;20047;-77
2022/06/19 08:44:02;;;;;;;8.60;4.90;;;35.40;58.70;;;;;;5157461;27;20045;-75
2022/06/19 08:46:39;;;;;;;7.03;4.55;;;35.70;57.20;;;;;;5157567;27;20407;-76
2022/06/19 08:49:21;;;;;;;10.75;5.13;;;35.60;56.80;;;;;;5157499;27;20129;-75
2022/06/19 08:51:56;;;;;;;9.23;5.15;;;36.20;56.10;;;;;;5157194;27;20131;-76
2022/06/19 08:54:33;;;;;;;14.52;4.63;;;36.50;55.50;;;;;;5157397;27;20059;-78
2022/06/19 08:57:12;;;;;;;9.60;4.90;;;36.40;53.20;;;;;;5138471;27;20051;-77
2022/06/19 08:59:51;;;;;;;9.88;4.07;;;35.90;52.40;;;;;;5157355;27;20046;-78
2022/06/19 09:02:28;;;;;;;5.30;4.03;;;35.80;52.80;;;;;;5157711;27;20496;-77
